X  Blizu METAR Podaci o vazduhoplovstvu     LGRX Patras Araxos Agamemnon Airport
Temperatura
75°F Temperatura
61°F Tačka Rose
61% Vlaga



Vetar
6 MPS
10 KM/S
3 M/S
5 Čvorovi



30°
SSI
Trenutna situacija

Delimično oblačno Delimično oblačno
Vazdušni pritisak 1010.92 (hPa) - 29.85 (inHg)
Vidljivost 6.2 (Milje) - 10 (km)
Aerodrom
Aerodromski kod. LGRX

Lokacija: Patras Araxos Agamemnon Airport
Udaljenost: 108 (mi)

Metar:
LGRX 110250Z 03005KT 9999 FEW030 24/16 Q1011 RMK FEW070 BLU

Vreme: 11-08-2022 05:50 EEST